Terminal Aerodrome Forecast
Issued by NWS

Home | Current Version | Previous Version | Text Only | Print | Product List | Glossary On
Versions: 1 2 3 4 5 6 7 8 9 10 11 12 13 14 15 16
503
FTAK31 PAJN 210540
TAFAKT
TAF
PAKT 210540Z 2106/2206 16012G20KT P6SM OVC035 WS020/15030KT
      TEMPO 2108/2112 -RA
     FM211200 15010KT P6SM OVC035
      TEMPO 2112/2116 -RA
      AMD LTD TO CLD VIS AND WIND 2106/2115=

USA.gov is the U.S. government's official web portal to all federal, state and local government web resources and services.